sensor_id;sensor_type;location;lat;lon;timestamp;P1;durP1;ratioP1;P2;durP2;ratioP2
4517;SDS011;2271;49.464;11.070;2023-03-13T00:00:43;6.90;;;2.17;;
4517;SDS011;2271;49.464;11.070;2023-03-13T00:03:08;5.67;;;1.70;;
4517;SDS011;2271;49.464;11.070;2023-03-13T00:05:34;8.37;;;2.00;;
4517;SDS011;2271;49.464;11.070;2023-03-13T00:08:00;6.00;;;2.10;;
4517;SDS011;2271;49.464;11.070;2023-03-13T00:10:26;8.17;;;2.23;;
4517;SDS011;2271;49.464;11.070;2023-03-13T00:12:51;4.80;;;2.00;;
4517;SDS011;2271;49.464;11.070;2023-03-13T00:15:17;4.77;;;1.90;;
4517;SDS011;2271;49.464;11.070;2023-03-13T00:17:43;14.77;;;2.63;;
4517;SDS011;2271;49.464;11.070;2023-03-13T00:20:08;7.63;;;2.97;;
4517;SDS011;2271;49.464;11.070;2023-03-13T00:22:34;5.50;;;2.00;;
4517;SDS011;2271;49.464;11.070;2023-03-13T00:25:00;7.10;;;2.30;;
4517;SDS011;2271;49.464;11.070;2023-03-13T00:27:25;6.23;;;1.73;;
4517;SDS011;2271;49.464;11.070;2023-03-13T00:29:51;6.67;;;1.80;;
4517;SDS011;2271;49.464;11.070;2023-03-13T00:32:17;8.07;;;2.47;;
4517;SDS011;2271;49.464;11.070;2023-03-13T00:34:42;6.67;;;1.70;;
4517;SDS011;2271;49.464;11.070;2023-03-13T00:37:08;5.07;;;2.00;;
4517;SDS011;2271;49.464;11.070;2023-03-13T00:39:33;6.30;;;1.70;;
4517;SDS011;2271;49.464;11.070;2023-03-13T00:41:59;5.07;;;2.10;;
4517;SDS011;2271;49.464;11.070;2023-03-13T00:44:27;4.77;;;2.13;;
4517;SDS011;2271;49.464;11.070;2023-03-13T00:46:53;4.37;;;1.80;;
4517;SDS011;2271;49.464;11.070;2023-03-13T00:49:19;6.63;;;1.70;;
4517;SDS011;2271;49.464;11.070;2023-03-13T00:51:45;7.13;;;2.00;;
4517;SDS011;2271;49.464;11.070;2023-03-13T00:54:10;3.60;;;1.97;;
4517;SDS011;2271;49.464;11.070;2023-03-13T00:56:36;8.13;;;1.83;;
4517;SDS011;2271;49.464;11.070;2023-03-13T00:59:01;4.67;;;1.57;;
4517;SDS011;2271;49.464;11.070;2023-03-13T01:01:29;3.83;;;2.00;;
4517;SDS011;2271;49.464;11.070;2023-03-13T01:04:00;2.93;;;1.90;;
4517;SDS011;2271;49.464;11.070;2023-03-13T01:06:28;9.00;;;2.00;;
4517;SDS011;2271;49.464;11.070;2023-03-13T01:08:55;6.27;;;1.83;;
4517;SDS011;2271;49.464;11.070;2023-03-13T01:11:25;5.53;;;1.80;;
4517;SDS011;2271;49.464;11.070;2023-03-13T01:13:53;5.77;;;1.83;;
4517;SDS011;2271;49.464;11.070;2023-03-13T01:16:20;5.67;;;2.10;;
4517;SDS011;2271;49.464;11.070;2023-03-13T01:18:47;1.63;;;1.37;;
4517;SDS011;2271;49.464;11.070;2023-03-13T01:21:15;6.50;;;1.87;;
4517;SDS011;2271;49.464;11.070;2023-03-13T01:23:43;3.83;;;1.80;;
4517;SDS011;2271;49.464;11.070;2023-03-13T01:26:09;8.37;;;2.13;;
4517;SDS011;2271;49.464;11.070;2023-03-13T01:28:35;5.03;;;2.07;;
4517;SDS011;2271;49.464;11.070;2023-03-13T01:31:12;3.30;;;1.50;;
4517;SDS011;2271;49.464;11.070;2023-03-13T01:33:39;6.90;;;1.90;;
4517;SDS011;2271;49.464;11.070;2023-03-13T01:36:05;4.57;;;2.03;;
4517;SDS011;2271;49.464;11.070;2023-03-13T01:38:31;4.90;;;1.93;;
4517;SDS011;2271;49.464;11.070;2023-03-13T01:40:57;5.90;;;1.80;;
4517;SDS011;2271;49.464;11.070;2023-03-13T01:43:23;5.37;;;1.67;;
4517;SDS011;2271;49.464;11.070;2023-03-13T01:51:17;7.27;;;2.00;;
4517;SDS011;2271;49.464;11.070;2023-03-13T01:53:49;5.23;;;2.17;;
4517;SDS011;2271;49.464;11.070;2023-03-13T01:59:22;4.63;;;1.90;;
4517;SDS011;2271;49.464;11.070;2023-03-13T02:01:50;7.40;;;2.33;;
4517;SDS011;2271;49.464;11.070;2023-03-13T02:04:18;5.50;;;1.97;;
4517;SDS011;2271;49.464;11.070;2023-03-13T02:06:46;5.37;;;2.00;;
4517;SDS011;2271;49.464;11.070;2023-03-13T02:09:16;6.20;;;2.17;;
4517;SDS011;2271;49.464;11.070;2023-03-13T02:11:49;5.10;;;1.50;;
4517;SDS011;2271;49.464;11.070;2023-03-13T02:14:24;6.43;;;1.80;;
4517;SDS011;2271;49.464;11.070;2023-03-13T02:16:53;10.37;;;2.50;;
4517;SDS011;2271;49.464;11.070;2023-03-13T02:24:44;7.23;;;1.70;;
4517;SDS011;2271;49.464;11.070;2023-03-13T02:27:20;10.40;;;3.00;;
4517;SDS011;2271;49.464;11.070;2023-03-13T02:29:46;7.97;;;2.00;;
4517;SDS011;2271;49.464;11.070;2023-03-13T02:32:12;6.13;;;1.70;;
4517;SDS011;2271;49.464;11.070;2023-03-13T02:34:38;6.67;;;2.00;;
4517;SDS011;2271;49.464;11.070;2023-03-13T02:37:06;9.63;;;1.60;;
4517;SDS011;2271;49.464;11.070;2023-03-13T02:39:35;3.53;;;1.50;;
4517;SDS011;2271;49.464;11.070;2023-03-13T02:42:02;4.80;;;1.90;;
4517;SDS011;2271;49.464;11.070;2023-03-13T02:44:29;7.93;;;1.90;;
4517;SDS011;2271;49.464;11.070;2023-03-13T02:46:54;14.83;;;2.47;;
4517;SDS011;2271;49.464;11.070;2023-03-13T02:49:24;6.43;;;1.90;;
4517;SDS011;2271;49.464;11.070;2023-03-13T02:51:52;7.93;;;2.50;;
4517;SDS011;2271;49.464;11.070;2023-03-13T02:54:25;3.93;;;2.17;;
4517;SDS011;2271;49.464;11.070;2023-03-13T02:57:00;5.23;;;1.67;;
4517;SDS011;2271;49.464;11.070;2023-03-13T02:59:27;6.73;;;1.80;;
4517;SDS011;2271;49.464;11.070;2023-03-13T03:01:53;7.40;;;2.03;;
4517;SDS011;2271;49.464;11.070;2023-03-13T03:04:19;5.23;;;1.60;;
4517;SDS011;2271;49.464;11.070;2023-03-13T03:06:46;8.57;;;2.30;;
4517;SDS011;2271;49.464;11.070;2023-03-13T03:09:12;8.23;;;2.27;;
4517;SDS011;2271;49.464;11.070;2023-03-13T03:11:38;5.27;;;2.10;;
4517;SDS011;2271;49.464;11.070;2023-03-13T03:14:04;11.80;;;2.10;;
4517;SDS011;2271;49.464;11.070;2023-03-13T03:16:30;5.23;;;1.43;;
4517;SDS011;2271;49.464;11.070;2023-03-13T03:18:55;9.43;;;1.70;;
4517;SDS011;2271;49.464;11.070;2023-03-13T03:21:21;4.50;;;1.87;;
4517;SDS011;2271;49.464;11.070;2023-03-13T03:23:48;10.60;;;2.13;;
4517;SDS011;2271;49.464;11.070;2023-03-13T03:26:14;6.50;;;2.40;;
4517;SDS011;2271;49.464;11.070;2023-03-13T03:28:40;7.20;;;1.97;;
4517;SDS011;2271;49.464;11.070;2023-03-13T03:31:07;7.40;;;1.77;;
4517;SDS011;2271;49.464;11.070;2023-03-13T03:33:34;6.40;;;2.13;;
4517;SDS011;2271;49.464;11.070;2023-03-13T03:36:01;5.40;;;1.57;;
4517;SDS011;2271;49.464;11.070;2023-03-13T03:38:31;3.70;;;1.60;;
4517;SDS011;2271;49.464;11.070;2023-03-13T03:40:58;3.67;;;1.73;;
4517;SDS011;2271;49.464;11.070;2023-03-13T03:43:24;3.17;;;1.73;;
4517;SDS011;2271;49.464;11.070;2023-03-13T03:45:50;6.07;;;1.70;;
4517;SDS011;2271;49.464;11.070;2023-03-13T03:48:16;5.50;;;2.20;;
4517;SDS011;2271;49.464;11.070;2023-03-13T03:50:42;3.87;;;1.67;;
4517;SDS011;2271;49.464;11.070;2023-03-13T03:53:07;2.83;;;1.63;;
4517;SDS011;2271;49.464;11.070;2023-03-13T03:55:33;3.67;;;1.60;;
4517;SDS011;2271;49.464;11.070;2023-03-13T03:57:59;5.60;;;2.27;;
4517;SDS011;2271;49.464;11.070;2023-03-13T04:00:25;5.77;;;1.60;;
4517;SDS011;2271;49.464;11.070;2023-03-13T04:02:51;4.30;;;1.70;;
4517;SDS011;2271;49.464;11.070;2023-03-13T04:05:17;3.17;;;2.00;;
4517;SDS011;2271;49.464;11.070;2023-03-13T04:07:43;4.87;;;2.13;;
4517;SDS011;2271;49.464;11.070;2023-03-13T04:10:09;4.47;;;1.57;;
4517;SDS011;2271;49.464;11.070;2023-03-13T04:12:35;3.70;;;1.53;;
4517;SDS011;2271;49.464;11.070;2023-03-13T04:15:01;8.67;;;1.70;;
4517;SDS011;2271;49.464;11.070;2023-03-13T04:17:27;4.20;;;1.90;;
4517;SDS011;2271;49.464;11.070;2023-03-13T04:19:52;4.03;;;1.43;;
4517;SDS011;2271;49.464;11.070;2023-03-13T04:22:18;6.87;;;1.57;;
4517;SDS011;2271;49.464;11.070;2023-03-13T04:24:44;9.03;;;1.60;;
4517;SDS011;2271;49.464;11.070;2023-03-13T04:27:09;4.90;;;1.20;;
4517;SDS011;2271;49.464;11.070;2023-03-13T04:29:35;6.77;;;1.73;;
4517;SDS011;2271;49.464;11.070;2023-03-13T04:32:01;7.13;;;2.50;;
4517;SDS011;2271;49.464;11.070;2023-03-13T04:34:26;4.87;;;1.70;;
4517;SDS011;2271;49.464;11.070;2023-03-13T04:36:52;10.40;;;1.70;;
4517;SDS011;2271;49.464;11.070;2023-03-13T04:39:19;5.70;;;1.73;;
4517;SDS011;2271;49.464;11.070;2023-03-13T04:41:49;7.60;;;1.70;;
4517;SDS011;2271;49.464;11.070;2023-03-13T04:44:18;4.93;;;1.70;;
4517;SDS011;2271;49.464;11.070;2023-03-13T04:46:44;6.47;;;1.57;;
4517;SDS011;2271;49.464;11.070;2023-03-13T04:49:10;3.20;;;1.50;;
4517;SDS011;2271;49.464;11.070;2023-03-13T04:51:35;9.80;;;1.50;;
4517;SDS011;2271;49.464;11.070;2023-03-13T04:54:01;5.47;;;1.17;;
4517;SDS011;2271;49.464;11.070;2023-03-13T04:56:27;7.60;;;1.53;;
4517;SDS011;2271;49.464;11.070;2023-03-13T04:58:53;7.93;;;1.53;;
4517;SDS011;2271;49.464;11.070;2023-03-13T05:01:19;3.40;;;1.43;;
4517;SDS011;2271;49.464;11.070;2023-03-13T05:03:45;6.10;;;1.70;;
4517;SDS011;2271;49.464;11.070;2023-03-13T05:06:11;2.27;;;1.23;;
4517;SDS011;2271;49.464;11.070;2023-03-13T05:08:37;4.30;;;1.50;;
4517;SDS011;2271;49.464;11.070;2023-03-13T05:13:31;3.87;;;1.80;;
4517;SDS011;2271;49.464;11.070;2023-03-13T05:15:57;4.93;;;1.50;;
4517;SDS011;2271;49.464;11.070;2023-03-13T05:18:22;5.97;;;1.63;;
4517;SDS011;2271;49.464;11.070;2023-03-13T05:20:48;9.47;;;2.93;;
4517;SDS011;2271;49.464;11.070;2023-03-13T05:23:14;3.43;;;1.93;;
4517;SDS011;2271;49.464;11.070;2023-03-13T05:25:39;4.13;;;1.57;;
4517;SDS011;2271;49.464;11.070;2023-03-13T05:28:05;8.43;;;1.67;;
4517;SDS011;2271;49.464;11.070;2023-03-13T05:30:31;3.37;;;1.67;;
4517;SDS011;2271;49.464;11.070;2023-03-13T05:32:56;4.73;;;1.70;;
4517;SDS011;2271;49.464;11.070;2023-03-13T05:35:22;6.17;;;1.83;;
4517;SDS011;2271;49.464;11.070;2023-03-13T05:37:47;4.17;;;1.90;;
4517;SDS011;2271;49.464;11.070;2023-03-13T05:40:13;4.97;;;2.03;;
4517;SDS011;2271;49.464;11.070;2023-03-13T05:42:39;6.63;;;2.37;;
4517;SDS011;2271;49.464;11.070;2023-03-13T05:45:05;5.73;;;1.70;;
4517;SDS011;2271;49.464;11.070;2023-03-13T05:47:33;5.67;;;1.53;;
4517;SDS011;2271;49.464;11.070;2023-03-13T05:49:59;4.87;;;1.87;;
4517;SDS011;2271;49.464;11.070;2023-03-13T05:52:25;6.93;;;1.70;;
4517;SDS011;2271;49.464;11.070;2023-03-13T05:54:50;2.17;;;1.20;;
4517;SDS011;2271;49.464;11.070;2023-03-13T05:57:16;6.53;;;1.43;;
4517;SDS011;2271;49.464;11.070;2023-03-13T05:59:42;8.83;;;2.33;;
4517;SDS011;2271;49.464;11.070;2023-03-13T06:02:07;7.60;;;2.90;;
4517;SDS011;2271;49.464;11.070;2023-03-13T06:04:33;3.47;;;2.03;;
4517;SDS011;2271;49.464;11.070;2023-03-13T06:06:59;7.10;;;1.97;;
4517;SDS011;2271;49.464;11.070;2023-03-13T06:09:25;6.97;;;1.63;;
4517;SDS011;2271;49.464;11.070;2023-03-13T06:11:51;5.57;;;1.80;;
4517;SDS011;2271;49.464;11.070;2023-03-13T06:14:18;7.33;;;2.77;;
4517;SDS011;2271;49.464;11.070;2023-03-13T06:16:44;10.20;;;2.13;;
4517;SDS011;2271;49.464;11.070;2023-03-13T06:19:09;4.00;;;1.60;;
4517;SDS011;2271;49.464;11.070;2023-03-13T06:21:35;4.10;;;1.50;;
4517;SDS011;2271;49.464;11.070;2023-03-13T06:24:01;5.03;;;1.67;;
4517;SDS011;2271;49.464;11.070;2023-03-13T06:26:27;10.20;;;1.77;;
4517;SDS011;2271;49.464;11.070;2023-03-13T06:28:53;3.73;;;1.50;;
4517;SDS011;2271;49.464;11.070;2023-03-13T06:31:18;5.40;;;1.30;;
4517;SDS011;2271;49.464;11.070;2023-03-13T06:33:44;3.60;;;1.63;;
4517;SDS011;2271;49.464;11.070;2023-03-13T06:36:10;3.03;;;1.73;;
4517;SDS011;2271;49.464;11.070;2023-03-13T06:38:35;7.80;;;1.73;;
4517;SDS011;2271;49.464;11.070;2023-03-13T06:41:01;2.00;;;1.17;;
4517;SDS011;2271;49.464;11.070;2023-03-13T06:43:27;5.90;;;1.50;;
4517;SDS011;2271;49.464;11.070;2023-03-13T06:45:52;3.87;;;1.87;;
4517;SDS011;2271;49.464;11.070;2023-03-13T06:48:18;8.40;;;2.03;;
4517;SDS011;2271;49.464;11.070;2023-03-13T06:50:45;3.20;;;1.67;;
4517;SDS011;2271;49.464;11.070;2023-03-13T06:53:18;3.83;;;1.90;;
4517;SDS011;2271;49.464;11.070;2023-03-13T06:55:44;4.37;;;1.60;;
4517;SDS011;2271;49.464;11.070;2023-03-13T06:58:11;2.90;;;1.50;;
4517;SDS011;2271;49.464;11.070;2023-03-13T07:00:37;4.93;;;1.80;;
4517;SDS011;2271;49.464;11.070;2023-03-13T07:03:04;4.77;;;1.90;;
4517;SDS011;2271;49.464;11.070;2023-03-13T07:05:30;4.27;;;1.80;;
4517;SDS011;2271;49.464;11.070;2023-03-13T07:07:56;4.57;;;1.53;;
4517;SDS011;2271;49.464;11.070;2023-03-13T07:10:21;6.07;;;1.60;;
4517;SDS011;2271;49.464;11.070;2023-03-13T07:12:47;8.80;;;2.40;;
4517;SDS011;2271;49.464;11.070;2023-03-13T07:15:13;4.03;;;1.30;;
4517;SDS011;2271;49.464;11.070;2023-03-13T07:17:38;4.40;;;2.07;;
4517;SDS011;2271;49.464;11.070;2023-03-13T07:20:04;8.30;;;2.10;;
4517;SDS011;2271;49.464;11.070;2023-03-13T07:22:33;4.90;;;1.70;;
4517;SDS011;2271;49.464;11.070;2023-03-13T07:24:59;5.60;;;1.70;;
4517;SDS011;2271;49.464;11.070;2023-03-13T07:27:24;2.83;;;1.60;;
4517;SDS011;2271;49.464;11.070;2023-03-13T07:29:50;4.00;;;1.53;;
4517;SDS011;2271;49.464;11.070;2023-03-13T07:32:16;4.07;;;2.10;;
4517;SDS011;2271;49.464;11.070;2023-03-13T07:34:41;3.20;;;1.30;;
4517;SDS011;2271;49.464;11.070;2023-03-13T07:37:08;5.07;;;1.60;;
4517;SDS011;2271;49.464;11.070;2023-03-13T07:39:38;4.93;;;1.67;;
4517;SDS011;2271;49.464;11.070;2023-03-13T07:42:04;4.03;;;1.63;;
4517;SDS011;2271;49.464;11.070;2023-03-13T07:44:30;5.53;;;1.83;;
4517;SDS011;2271;49.464;11.070;2023-03-13T07:46:58;3.83;;;1.67;;
4517;SDS011;2271;49.464;11.070;2023-03-13T07:49:24;5.90;;;1.80;;
4517;SDS011;2271;49.464;11.070;2023-03-13T07:51:50;5.23;;;2.10;;
4517;SDS011;2271;49.464;11.070;2023-03-13T07:54:15;2.60;;;1.40;;
4517;SDS011;2271;49.464;11.070;2023-03-13T07:56:41;6.40;;;2.03;;
4517;SDS011;2271;49.464;11.070;2023-03-13T07:59:07;4.87;;;1.23;;
4517;SDS011;2271;49.464;11.070;2023-03-13T08:01:32;7.50;;;1.80;;
4517;SDS011;2271;49.464;11.070;2023-03-13T08:03:58;4.63;;;1.47;;
4517;SDS011;2271;49.464;11.070;2023-03-13T08:06:28;7.90;;;1.87;;
4517;SDS011;2271;49.464;11.070;2023-03-13T08:08:56;3.10;;;1.90;;
4517;SDS011;2271;49.464;11.070;2023-03-13T08:11:23;2.80;;;1.67;;
4517;SDS011;2271;49.464;11.070;2023-03-13T08:13:50;7.33;;;1.53;;
4517;SDS011;2271;49.464;11.070;2023-03-13T08:16:24;3.10;;;1.70;;
4517;SDS011;2271;49.464;11.070;2023-03-13T08:18:58;5.97;;;2.00;;
4517;SDS011;2271;49.464;11.070;2023-03-13T08:21:28;4.23;;;2.20;;
4517;SDS011;2271;49.464;11.070;2023-03-13T08:23:56;8.87;;;1.93;;
4517;SDS011;2271;49.464;11.070;2023-03-13T08:26:24;6.97;;;1.50;;
4517;SDS011;2271;49.464;11.070;2023-03-13T08:28:55;4.77;;;1.67;;
4517;SDS011;2271;49.464;11.070;2023-03-13T08:31:26;3.17;;;1.63;;
4517;SDS011;2271;49.464;11.070;2023-03-13T08:33:53;3.97;;;2.27;;
4517;SDS011;2271;49.464;11.070;2023-03-13T08:36:29;5.10;;;1.60;;
4517;SDS011;2271;49.464;11.070;2023-03-13T08:38:58;4.00;;;1.37;;
4517;SDS011;2271;49.464;11.070;2023-03-13T08:41:26;7.33;;;1.77;;
4517;SDS011;2271;49.464;11.070;2023-03-13T08:43:54;3.30;;;1.20;;
4517;SDS011;2271;49.464;11.070;2023-03-13T08:46:21;4.70;;;1.27;;
4517;SDS011;2271;49.464;11.070;2023-03-13T08:48:48;3.00;;;1.40;;
4517;SDS011;2271;49.464;11.070;2023-03-13T08:51:15;2.07;;;1.07;;
4517;SDS011;2271;49.464;11.070;2023-03-13T08:53:42;6.93;;;1.37;;
4517;SDS011;2271;49.464;11.070;2023-03-13T08:56:08;2.10;;;1.53;;
4517;SDS011;2271;49.464;11.070;2023-03-13T08:58:35;2.60;;;1.43;;
4517;SDS011;2271;49.464;11.070;2023-03-13T09:01:02;1.77;;;1.00;;
4517;SDS011;2271;49.464;11.070;2023-03-13T09:03:32;3.47;;;1.57;;
4517;SDS011;2271;49.464;11.070;2023-03-13T09:05:58;4.50;;;1.87;;
4517;SDS011;2271;49.464;11.070;2023-03-13T09:08:24;1.93;;;1.33;;
4517;SDS011;2271;49.464;11.070;2023-03-13T09:10:58;2.60;;;1.33;;
4517;SDS011;2271;49.464;11.070;2023-03-13T09:13:29;2.87;;;1.50;;
4517;SDS011;2271;49.464;11.070;2023-03-13T09:16:00;4.60;;;2.03;;
4517;SDS011;2271;49.464;11.070;2023-03-13T09:18:31;3.73;;;1.60;;
4517;SDS011;2271;49.464;11.070;2023-03-13T09:20:57;2.70;;;1.60;;
4517;SDS011;2271;49.464;11.070;2023-03-13T09:23:23;5.55;;;1.60;;
4517;SDS011;2271;49.464;11.070;2023-03-13T09:25:51;8.70;;;3.45;;
4517;SDS011;2271;49.464;11.070;2023-03-13T09:28:17;5.32;;;1.73;;
4517;SDS011;2271;49.464;11.070;2023-03-13T09:30:43;2.35;;;0.88;;
4517;SDS011;2271;49.464;11.070;2023-03-13T09:33:09;2.78;;;1.00;;
4517;SDS011;2271;49.464;11.070;2023-03-13T09:35:37;1.55;;;0.50;;
4517;SDS011;2271;49.464;11.070;2023-03-13T09:38:03;2.42;;;0.82;;
4517;SDS011;2271;49.464;11.070;2023-03-13T09:40:29;3.53;;;1.00;;
4517;SDS011;2271;49.464;11.070;2023-03-13T09:43:01;1.25;;;0.70;;
4517;SDS011;2271;49.464;11.070;2023-03-13T09:45:30;3.08;;;0.90;;
4517;SDS011;2271;49.464;11.070;2023-03-13T09:48:23;1.92;;;1.02;;
4517;SDS011;2271;49.464;11.070;2023-03-13T09:51:06;1.77;;;1.00;;
4517;SDS011;2271;49.464;11.070;2023-03-13T09:53:50;3.70;;;1.10;;
4517;SDS011;2271;49.464;11.070;2023-03-13T09:56:21;1.58;;;1.02;;
4517;SDS011;2271;49.464;11.070;2023-03-13T10:01:42;0.60;;;0.52;;
4517;SDS011;2271;49.464;11.070;2023-03-13T10:07:20;1.65;;;0.70;;
4517;SDS011;2271;49.464;11.070;2023-03-13T10:09:45;0.65;;;0.60;;
4517;SDS011;2271;49.464;11.070;2023-03-13T10:14:56;2.40;;;1.33;;
4517;SDS011;2271;49.464;11.070;2023-03-13T10:17:42;2.00;;;1.10;;
4517;SDS011;2271;49.464;11.070;2023-03-13T10:22:53;0.82;;;0.80;;
4517;SDS011;2271;49.464;11.070;2023-03-13T10:25:26;1.70;;;0.63;;
4517;SDS011;2271;49.464;11.070;2023-03-13T10:27:54;0.70;;;0.60;;
4517;SDS011;2271;49.464;11.070;2023-03-13T10:30:23;0.68;;;0.60;;
4517;SDS011;2271;49.464;11.070;2023-03-13T10:32:56;0.57;;;0.57;;
4517;SDS011;2271;49.464;11.070;2023-03-13T10:35:32;2.42;;;1.02;;
4517;SDS011;2271;49.464;11.070;2023-03-13T10:40:39;3.13;;;0.77;;
4517;SDS011;2271;49.464;11.070;2023-03-13T10:43:12;1.45;;;0.50;;
4517;SDS011;2271;49.464;11.070;2023-03-13T10:45:41;2.20;;;1.30;;
4517;SDS011;2271;49.464;11.070;2023-03-13T10:48:39;0.50;;;0.50;;
4517;SDS011;2271;49.464;11.070;2023-03-13T10:51:00;1.15;;;0.55;;
4517;SDS011;2271;49.464;11.070;2023-03-13T10:58:48;1.10;;;0.75;;
4517;SDS011;2271;49.464;11.070;2023-03-13T11:01:22;1.30;;;0.70;;
4517;SDS011;2271;49.464;11.070;2023-03-13T11:03:54;1.27;;;0.60;;
4517;SDS011;2271;49.464;11.070;2023-03-13T11:09:04;1.60;;;0.93;;
4517;SDS011;2271;49.464;11.070;2023-03-13T11:11:42;2.03;;;1.10;;
4517;SDS011;2271;49.464;11.070;2023-03-13T11:14:13;3.63;;;1.00;;
4517;SDS011;2271;49.464;11.070;2023-03-13T11:17:07;0.60;;;0.60;;
4517;SDS011;2271;49.464;11.070;2023-03-13T11:19:40;3.45;;;0.88;;
4517;SDS011;2271;49.464;11.070;2023-03-13T11:22:39;1.85;;;0.77;;
4517;SDS011;2271;49.464;11.070;2023-03-13T11:25:38;1.02;;;0.80;;
4517;SDS011;2271;49.464;11.070;2023-03-13T11:28:26;0.80;;;0.80;;
4517;SDS011;2271;49.464;11.070;2023-03-13T11:31:10;1.15;;;0.90;;
4517;SDS011;2271;49.464;11.070;2023-03-13T11:39:02;2.78;;;1.10;;
4517;SDS011;2271;49.464;11.070;2023-03-13T11:44:21;0.95;;;0.82;;
4517;SDS011;2271;49.464;11.070;2023-03-13T11:46:58;1.23;;;0.75;;
4517;SDS011;2271;49.464;11.070;2023-03-13T11:52:49;1.10;;;0.95;;
4517;SDS011;2271;49.464;11.070;2023-03-13T11:55:37;1.00;;;0.80;;
4517;SDS011;2271;49.464;11.070;2023-03-13T12:01:39;5.40;;;1.05;;
4517;SDS011;2271;49.464;11.070;2023-03-13T12:04:21;2.78;;;1.00;;
4517;SDS011;2271;49.464;11.070;2023-03-13T12:06:54;1.38;;;1.00;;
4517;SDS011;2271;49.464;11.070;2023-03-13T12:18:11;1.23;;;1.00;;
4517;SDS011;2271;49.464;11.070;2023-03-13T12:23:41;2.25;;;1.38;;
4517;SDS011;2271;49.464;11.070;2023-03-13T12:28:50;5.25;;;1.23;;
4517;SDS011;2271;49.464;11.070;2023-03-13T12:31:48;1.50;;;1.10;;
4517;SDS011;2271;49.464;11.070;2023-03-13T12:43:46;0.90;;;0.90;;
4517;SDS011;2271;49.464;11.070;2023-03-13T13:00:41;4.93;;;1.10;;
4517;SDS011;2271;49.464;11.070;2023-03-13T13:06:01;2.20;;;1.98;;
4517;SDS011;2271;49.464;11.070;2023-03-13T13:08:32;0.90;;;0.90;;
4517;SDS011;2271;49.464;11.070;2023-03-13T13:11:44;2.25;;;1.17;;
4517;SDS011;2271;49.464;11.070;2023-03-13T13:13:59;1.40;;;1.08;;
4517;SDS011;2271;49.464;11.070;2023-03-13T13:16:26;2.47;;;1.23;;
4517;SDS011;2271;49.464;11.070;2023-03-13T13:18:53;1.83;;;1.42;;
4517;SDS011;2271;49.464;11.070;2023-03-13T13:21:20;3.67;;;1.88;;
4517;SDS011;2271;49.464;11.070;2023-03-13T13:23:50;1.80;;;1.10;;
4517;SDS011;2271;49.464;11.070;2023-03-13T13:29:01;2.67;;;1.20;;
4517;SDS011;2271;49.464;11.070;2023-03-13T13:37:25;1.17;;;0.90;;
4517;SDS011;2271;49.464;11.070;2023-03-13T13:39:53;2.47;;;1.40;;
4517;SDS011;2271;49.464;11.070;2023-03-13T13:47:39;1.10;;;0.95;;
4517;SDS011;2271;49.464;11.070;2023-03-13T13:52:49;3.00;;;1.20;;
4517;SDS011;2271;49.464;11.070;2023-03-13T13:58:18;1.65;;;1.10;;
4517;SDS011;2271;49.464;11.070;2023-03-13T14:01:05;1.40;;;0.80;;
4517;SDS011;2271;49.464;11.070;2023-03-13T14:03:36;2.45;;;1.20;;
4517;SDS011;2271;49.464;11.070;2023-03-13T14:06:41;2.45;;;1.20;;
4517;SDS011;2271;49.464;11.070;2023-03-13T14:09:11;2.45;;;1.08;;
4517;SDS011;2271;49.464;11.070;2023-03-13T14:11:44;1.33;;;1.20;;
4517;SDS011;2271;49.464;11.070;2023-03-13T14:14:17;1.08;;;0.93;;
4517;SDS011;2271;49.464;11.070;2023-03-13T14:16:45;1.75;;;1.20;;
4517;SDS011;2271;49.464;11.070;2023-03-13T14:19:20;2.35;;;1.30;;
4517;SDS011;2271;49.464;11.070;2023-03-13T14:22:04;1.17;;;1.08;;
4517;SDS011;2271;49.464;11.070;2023-03-13T14:24:35;1.92;;;1.00;;
4517;SDS011;2271;49.464;11.070;2023-03-13T14:27:01;4.60;;;1.38;;
4517;SDS011;2271;49.464;11.070;2023-03-13T14:29:38;3.97;;;1.40;;
4517;SDS011;2271;49.464;11.070;2023-03-13T14:32:04;2.45;;;1.42;;
4517;SDS011;2271;49.464;11.070;2023-03-13T14:34:31;1.88;;;1.15;;
4517;SDS011;2271;49.464;11.070;2023-03-13T14:36:57;2.75;;;1.27;;
4517;SDS011;2271;49.464;11.070;2023-03-13T14:42:22;1.98;;;1.10;;
4517;SDS011;2271;49.464;11.070;2023-03-13T14:44:47;6.43;;;1.20;;
4517;SDS011;2271;49.464;11.070;2023-03-13T14:47:22;2.95;;;1.27;;
4517;SDS011;2271;49.464;11.070;2023-03-13T14:49:57;2.97;;;1.27;;
4517;SDS011;2271;49.464;11.070;2023-03-13T14:52:25;2.28;;;1.05;;
4517;SDS011;2271;49.464;11.070;2023-03-13T14:54:53;1.77;;;1.35;;
4517;SDS011;2271;49.464;11.070;2023-03-13T14:57:21;3.13;;;1.35;;
4517;SDS011;2271;49.464;11.070;2023-03-13T14:59:49;4.22;;;1.35;;
4517;SDS011;2271;49.464;11.070;2023-03-13T15:02:28;1.52;;;1.08;;
4517;SDS011;2271;49.464;11.070;2023-03-13T15:04:59;6.32;;;1.30;;
4517;SDS011;2271;49.464;11.070;2023-03-13T15:07:37;2.90;;;1.60;;
4517;SDS011;2271;49.464;11.070;2023-03-13T15:12:55;4.07;;;1.40;;
4517;SDS011;2271;49.464;11.070;2023-03-13T15:15:20;2.33;;;1.52;;
4517;SDS011;2271;49.464;11.070;2023-03-13T15:17:46;1.55;;;1.30;;
4517;SDS011;2271;49.464;11.070;2023-03-13T15:20:12;3.15;;;1.42;;
4517;SDS011;2271;49.464;11.070;2023-03-13T15:22:40;1.88;;;1.20;;
4517;SDS011;2271;49.464;11.070;2023-03-13T15:25:20;3.72;;;1.73;;
4517;SDS011;2271;49.464;11.070;2023-03-13T15:27:47;1.75;;;1.30;;
4517;SDS011;2271;49.464;11.070;2023-03-13T15:30:14;4.05;;;1.73;;
4517;SDS011;2271;49.464;11.070;2023-03-13T15:32:41;4.00;;;1.40;;
4517;SDS011;2271;49.464;11.070;2023-03-13T15:37:53;8.48;;;2.00;;
4517;SDS011;2271;49.464;11.070;2023-03-13T15:40:19;2.92;;;1.40;;
4517;SDS011;2271;49.464;11.070;2023-03-13T15:42:48;3.85;;;1.63;;
4517;SDS011;2271;49.464;11.070;2023-03-13T15:45:14;2.20;;;1.52;;
4517;SDS011;2271;49.464;11.070;2023-03-13T15:47:40;1.52;;;1.15;;
4517;SDS011;2271;49.464;11.070;2023-03-13T15:50:09;2.85;;;1.50;;
4517;SDS011;2271;49.464;11.070;2023-03-13T15:52:36;3.75;;;1.27;;
4517;SDS011;2271;49.464;11.070;2023-03-13T15:55:02;8.60;;;1.73;;
4517;SDS011;2271;49.464;11.070;2023-03-13T15:57:28;3.00;;;1.20;;
4517;SDS011;2271;49.464;11.070;2023-03-13T15:59:54;4.68;;;1.83;;
4517;SDS011;2271;49.464;11.070;2023-03-13T16:02:21;2.28;;;1.45;;
4517;SDS011;2271;49.464;11.070;2023-03-13T16:04:47;4.45;;;1.67;;
4517;SDS011;2271;49.464;11.070;2023-03-13T16:07:14;11.93;;;1.60;;
4517;SDS011;2271;49.464;11.070;2023-03-13T16:09:42;2.65;;;1.38;;
4517;SDS011;2271;49.464;11.070;2023-03-13T16:12:08;3.22;;;1.45;;
4517;SDS011;2271;49.464;11.070;2023-03-13T16:14:35;5.05;;;1.50;;
4517;SDS011;2271;49.464;11.070;2023-03-13T16:17:02;4.07;;;1.95;;
4517;SDS011;2271;49.464;11.070;2023-03-13T16:19:36;3.38;;;1.40;;
4517;SDS011;2271;49.464;11.070;2023-03-13T16:22:01;3.38;;;1.33;;
4517;SDS011;2271;49.464;11.070;2023-03-13T16:24:27;4.47;;;1.10;;
4517;SDS011;2271;49.464;11.070;2023-03-13T16:26:53;5.65;;;1.48;;
4517;SDS011;2271;49.464;11.070;2023-03-13T16:29:19;7.05;;;1.27;;
4517;SDS011;2271;49.464;11.070;2023-03-13T16:31:44;2.90;;;1.10;;
4517;SDS011;2271;49.464;11.070;2023-03-13T16:34:10;3.03;;;1.63;;
4517;SDS011;2271;49.464;11.070;2023-03-13T16:36:36;4.30;;;1.40;;
4517;SDS011;2271;49.464;11.070;2023-03-13T16:39:06;4.10;;;1.23;;
4517;SDS011;2271;49.464;11.070;2023-03-13T16:41:35;6.78;;;2.30;;
4517;SDS011;2271;49.464;11.070;2023-03-13T16:44:01;7.45;;;1.95;;
4517;SDS011;2271;49.464;11.070;2023-03-13T16:46:40;5.75;;;2.60;;
4517;SDS011;2271;49.464;11.070;2023-03-13T16:49:10;2.72;;;1.67;;
4517;SDS011;2271;49.464;11.070;2023-03-13T16:51:38;8.05;;;2.00;;
4517;SDS011;2271;49.464;11.070;2023-03-13T16:54:04;4.80;;;1.90;;
4517;SDS011;2271;49.464;11.070;2023-03-13T16:56:34;9.60;;;2.58;;
4517;SDS011;2271;49.464;11.070;2023-03-13T16:59:05;3.88;;;1.60;;
4517;SDS011;2271;49.464;11.070;2023-03-13T17:01:34;3.45;;;1.73;;
4517;SDS011;2271;49.464;11.070;2023-03-13T17:04:00;2.67;;;1.45;;
4517;SDS011;2271;49.464;11.070;2023-03-13T17:06:27;4.00;;;2.10;;
4517;SDS011;2271;49.464;11.070;2023-03-13T17:08:56;4.45;;;2.63;;
4517;SDS011;2271;49.464;11.070;2023-03-13T17:11:22;6.70;;;2.67;;